Terminal Aerodrome Forecast
Issued by NWS

Home | Current Version | Previous Version | Text Only | Print | Product List | Glossary On
Versions: 1 2 3 4 5 6 7 8 9 10 11 12 13 14 15 16 17 18
000
FTUS45 KTFX 221221 AAA
TAFGTF
TAF AMD
KGTF 221221Z 2212/2312 27004KT 6SM BR VCSH SCT002 OVC040
      TEMPO 2212/2215 3/4SM BR BKN002
     FM221600 29008KT P6SM VCSH BKN035 OVC050
     FM222200 02008KT P6SM VCSH OVC025
     FM230600 34008KT 5SM -SHSN BR BKN015 OVC035=

USA.gov is the U.S. government's official web portal to all federal, state and local government web resources and services.